createdAt,value
2022-08-09T00:00:59.048Z,15.16
2022-08-09T00:04:06.250Z,15.09
2022-08-09T00:06:23.295Z,14.94
2022-08-09T00:08:57.008Z,14.85
2022-08-09T00:12:02.876Z,14.88
2022-08-09T00:14:21.928Z,14.81
2022-08-09T00:17:05.403Z,14.79
2022-08-09T00:19:33.941Z,14.83
2022-08-09T00:22:03.493Z,14.85
2022-08-09T00:24:32.917Z,14.83
2022-08-09T00:27:03.969Z,14.85
2022-08-09T00:30:10.021Z,14.83
2022-08-09T00:32:25.376Z,14.83
2022-08-09T00:34:53.810Z,14.83
2022-08-09T00:37:22.189Z,14.78
2022-08-09T00:40:13.128Z,14.72
2022-08-09T00:44:14.162Z,14.64
2022-08-09T00:45:30.519Z,14.60
2022-08-09T00:48:04.345Z,14.60
2022-08-09T00:50:37.864Z,14.62
2022-08-09T00:53:10.582Z,14.63
2022-08-09T00:56:04.718Z,14.59
2022-08-09T00:58:34.449Z,14.57
2022-08-09T01:01:08.129Z,14.51
2022-08-09T01:03:51.416Z,14.49
2022-08-09T01:06:54.381Z,14.44
2022-08-09T01:09:36.478Z,14.42
2022-08-09T01:12:16.440Z,14.42
2022-08-09T01:15:05.883Z,14.44
2022-08-09T01:17:47.184Z,14.51
2022-08-09T01:20:25.932Z,14.52
2022-08-09T01:24:02.744Z,14.48
2022-08-09T01:26:57.390Z,14.49
2022-08-09T01:29:40.878Z,14.62
2022-08-09T01:32:29.783Z,14.72
2022-08-09T01:35:18.084Z,14.68
2022-08-09T01:38:09.316Z,14.66
2022-08-09T01:40:44.911Z,14.58
2022-08-09T01:43:24.357Z,14.55
2022-08-09T01:45:58.046Z,14.58
2022-08-09T01:48:31.429Z,14.59
2022-08-09T01:51:02.585Z,14.58
2022-08-09T01:53:41.410Z,14.56
2022-08-09T01:56:13.096Z,14.58
2022-08-09T01:58:49.021Z,14.53
2022-08-09T02:01:20.013Z,14.57
2022-08-09T02:04:01.027Z,14.63
2022-08-09T02:06:58.434Z,14.64
2022-08-09T02:09:41.895Z,14.72
2022-08-09T02:12:21.188Z,14.79
2022-08-09T02:14:56.005Z,14.96
2022-08-09T02:17:59.457Z,15.08
2022-08-09T02:20:26.494Z,15.16
2022-08-09T02:23:09.836Z,15.25
2022-08-09T02:25:42.449Z,15.25
2022-08-09T02:28:24.414Z,15.18
2022-08-09T02:31:05.781Z,15.06
2022-08-09T02:34:06.463Z,15.02
2022-08-09T02:36:34.371Z,14.92
2022-08-09T02:39:14.436Z,14.85
2022-08-09T02:41:56.014Z,14.81
2022-08-09T02:44:32.437Z,14.76
2022-08-09T02:47:08.320Z,14.74
2022-08-09T02:49:46.946Z,14.77
2022-08-09T02:52:35.850Z,14.78
2022-08-09T02:55:20.102Z,14.82
2022-08-09T02:57:59.772Z,14.81
2022-08-09T03:00:57.692Z,14.76
2022-08-09T03:04:05.771Z,14.68
2022-08-09T03:06:22.718Z,14.64
2022-08-09T03:08:52.766Z,14.65
2022-08-09T03:12:04.877Z,14.71
2022-08-09T03:14:14.594Z,14.64
2022-08-09T03:16:48.137Z,14.61
2022-08-09T03:19:52.471Z,14.54
2022-08-09T03:22:12.106Z,14.43
2022-08-09T03:25:05.797Z,14.33
2022-08-09T03:27:45.218Z,14.26
2022-08-09T03:30:29.183Z,14.23
2022-08-09T03:33:12.953Z,14.20
2022-08-09T03:36:13.035Z,14.13
2022-08-09T03:38:42.108Z,14.07
2022-08-09T03:41:15.192Z,14.07
2022-08-09T03:44:03.265Z,14.02
2022-08-09T03:46:33.513Z,13.98
2022-08-09T03:49:08.480Z,13.94
2022-08-09T03:51:58.410Z,13.90
2022-08-09T03:54:34.523Z,13.88
2022-08-09T03:57:18.008Z,13.87
2022-08-09T03:59:54.601Z,13.86
2022-08-09T04:02:28.342Z,13.88
2022-08-09T04:05:00.773Z,13.86
2022-08-09T04:07:33.738Z,13.87
2022-08-09T04:10:28.473Z,13.83
2022-08-09T04:13:04.046Z,13.81
2022-08-09T04:16:17.205Z,13.78
2022-08-09T04:18:22.091Z,13.83
2022-08-09T04:20:51.335Z,13.92
2022-08-09T04:23:24.712Z,13.97
2022-08-09T04:25:54.703Z,14.02
2022-08-09T04:28:33.195Z,14.10
2022-08-09T04:31:09.333Z,14.15
2022-08-09T04:33:51.981Z,14.19
2022-08-09T04:36:27.468Z,14.29
2022-08-09T04:39:00.768Z,14.34
2022-08-09T04:41:32.121Z,14.38
2022-08-09T04:44:06.664Z,14.46
2022-08-09T04:46:58.862Z,14.51
2022-08-09T04:49:53.184Z,14.55
2022-08-09T04:52:26.133Z,14.62
2022-08-09T04:55:04.162Z,14.70
2022-08-09T04:57:54.409Z,14.72
2022-08-09T05:00:24.564Z,14.83
2022-08-09T05:02:53.230Z,14.99
2022-08-09T05:05:51.879Z,15.08
2022-08-09T05:08:14.026Z,15.24
2022-08-09T05:10:45.608Z,15.37
2022-08-09T05:13:14.796Z,15.50
2022-08-09T05:15:48.163Z,15.64
2022-08-09T05:18:42.843Z,15.78
2022-08-09T05:21:10.082Z,15.96
2022-08-09T05:23:59.805Z,16.12
2022-08-09T05:26:45.344Z,16.28
2022-08-09T05:29:21.562Z,16.43
2022-08-09T05:31:57.206Z,16.59
2022-08-09T05:34:31.358Z,16.74
2022-08-09T05:37:06.199Z,16.89
2022-08-09T05:39:43.302Z,17.01
2022-08-09T05:42:21.606Z,17.20
2022-08-09T05:44:52.193Z,17.43
2022-08-09T05:47:21.725Z,17.58
2022-08-09T05:50:25.968Z,17.77
2022-08-09T05:52:41.971Z,17.96
2022-08-09T05:55:20.929Z,18.18
2022-08-09T05:57:56.741Z,18.44
2022-08-09T06:00:28.605Z,18.66
2022-08-09T06:02:58.729Z,18.95
2022-08-09T06:05:50.499Z,19.27
2022-08-09T06:08:19.331Z,19.74
2022-08-09T06:10:52.954Z,20.39
2022-08-09T06:13:24.202Z,20.99
2022-08-09T06:15:53.305Z,21.41
2022-08-09T06:18:24.902Z,21.74
2022-08-09T06:20:57.650Z,21.93
2022-08-09T06:23:58.514Z,22.20
2022-08-09T06:26:20.805Z,22.26
2022-08-09T06:29:00.612Z,22.64
2022-08-09T06:31:39.862Z,23.22
2022-08-09T06:34:23.480Z,23.22
2022-08-09T06:36:58.917Z,23.35
2022-08-09T06:39:57.752Z,23.43
2022-08-09T06:42:19.860Z,23.60
2022-08-09T06:44:54.028Z,23.98
2022-08-09T06:47:23.756Z,24.14
2022-08-09T06:50:14.221Z,24.50
2022-08-09T06:52:47.070Z,24.64
2022-08-09T06:55:17.160Z,24.46
2022-08-09T06:58:02.643Z,24.45
2022-08-09T07:00:54.686Z,24.77
2022-08-09T07:03:27.938Z,24.86
2022-08-09T07:06:03.816Z,24.70
2022-08-09T07:08:35.284Z,24.65
2022-08-09T07:11:06.943Z,24.82
2022-08-09T07:14:04.062Z,24.93
2022-08-09T07:16:41.533Z,25.38
2022-08-09T07:19:15.545Z,25.57
2022-08-09T07:21:55.428Z,25.88
2022-08-09T07:24:31.977Z,26.21
2022-08-09T07:27:10.921Z,26.47
2022-08-09T07:29:58.404Z,26.40
2022-08-09T07:32:33.652Z,26.66
2022-08-09T07:35:07.978Z,26.68
2022-08-09T07:37:44.068Z,26.69
2022-08-09T07:40:17.320Z,26.57
2022-08-09T07:42:55.520Z,26.51
2022-08-09T07:45:39.244Z,27.00
2022-08-09T07:48:25.678Z,27.49
2022-08-09T07:51:09.246Z,27.54
2022-08-09T07:54:05.982Z,26.95
2022-08-09T07:56:44.667Z,27.50
2022-08-09T07:59:34.572Z,27.69
2022-08-09T08:02:07.440Z,27.92
2022-08-09T08:04:39.009Z,27.69
2022-08-09T08:07:27.052Z,27.96
2022-08-09T08:10:08.958Z,28.39
2022-08-09T08:12:45.055Z,27.98
2022-08-09T08:15:16.705Z,28.44
2022-08-09T08:17:53.349Z,28.24
2022-08-09T08:20:29.337Z,28.11
2022-08-09T08:23:16.324Z,28.77
2022-08-09T08:25:48.208Z,28.33
2022-08-09T08:28:32.374Z,28.51
2022-08-09T08:31:10.482Z,28.46
2022-08-09T08:33:53.353Z,28.45
2022-08-09T08:36:29.640Z,28.94
2022-08-09T08:39:00.334Z,28.60
2022-08-09T08:41:41.998Z,29.01
2022-08-09T08:44:27.010Z,28.40
2022-08-09T08:47:05.212Z,28.74
2022-08-09T08:49:48.132Z,29.14
2022-08-09T08:55:11.547Z,29.21
2022-08-09T08:57:44.059Z,29.65
2022-08-09T09:00:29.958Z,29.65
2022-08-09T09:03:11.325Z,30.12
2022-08-09T09:05:58.437Z,29.94
2022-08-09T09:08:37.993Z,30.11
2022-08-09T09:11:13.792Z,30.55
2022-08-09T09:13:56.642Z,30.72
2022-08-09T09:16:34.227Z,30.92
2022-08-09T09:22:07.662Z,30.07
2022-08-09T09:24:43.186Z,30.30
2022-08-09T09:28:03.126Z,31.12
2022-08-09T09:30:37.329Z,31.31
2022-08-09T09:33:15.931Z,31.07
2022-08-09T09:36:01.329Z,30.57
2022-08-09T09:38:49.566Z,30.45
2022-08-09T09:41:48.960Z,30.72
2022-08-09T09:44:27.916Z,31.09
2022-08-09T09:47:09.403Z,31.85
2022-08-09T09:50:13.717Z,30.86
2022-08-09T09:52:36.366Z,31.07
2022-08-09T09:55:27.713Z,31.39
2022-08-09T09:58:16.331Z,31.41
2022-08-09T10:00:55.527Z,31.98
2022-08-09T10:03:43.231Z,32.23
2022-08-09T10:06:13.233Z,32.67
2022-08-09T10:08:55.123Z,32.15
2022-08-09T10:11:59.525Z,32.14
2022-08-09T10:14:33.199Z,31.71
2022-08-09T10:17:39.610Z,31.91
2022-08-09T10:20:02.666Z,31.75
2022-08-09T10:22:36.754Z,32.38
2022-08-09T10:25:11.619Z,32.43
2022-08-09T10:27:45.079Z,31.94
2022-08-09T10:34:05.202Z,32.74
2022-08-09T10:36:11.476Z,33.25
2022-08-09T10:38:56.801Z,33.13
2022-08-09T10:41:28.821Z,33.47
2022-08-09T10:44:01.769Z,33.35
2022-08-09T10:47:04.045Z,33.79
2022-08-09T10:49:59.448Z,33.41
2022-08-09T10:53:01.427Z,33.92
2022-08-09T10:55:35.821Z,33.48
2022-08-09T10:58:33.532Z,32.28
2022-08-09T11:03:03.033Z,32.89
2022-08-09T11:04:29.717Z,33.14
2022-08-09T11:07:56.984Z,33.03
2022-08-09T11:11:00.774Z,32.94
2022-08-09T11:13:50.296Z,33.51
2022-08-09T11:16:37.042Z,33.33
2022-08-09T11:19:10.109Z,33.33
2022-08-09T11:22:16.909Z,33.62
2022-08-09T11:25:09.835Z,33.95
2022-08-09T11:28:03.972Z,33.45
2022-08-09T11:30:37.626Z,33.46
2022-08-09T11:33:25.455Z,33.11
2022-08-09T11:35:57.974Z,32.92
2022-08-09T11:38:32.926Z,32.82
2022-08-09T11:41:06.472Z,33.36
2022-08-09T11:43:42.817Z,33.74
2022-08-09T11:46:11.763Z,33.72
2022-08-09T11:48:50.506Z,33.95
2022-08-09T11:51:37.944Z,32.99
2022-08-09T11:54:27.754Z,33.57
2022-08-09T11:57:47.524Z,34.26
2022-08-09T12:00:28.180Z,33.40
2022-08-09T12:02:58.560Z,33.20
2022-08-09T12:05:42.189Z,33.31
2022-08-09T12:08:19.829Z,32.61
2022-08-09T12:10:54.919Z,33.19
2022-08-09T12:14:09.123Z,32.99
2022-08-09T12:16:37.138Z,33.31
2022-08-09T12:19:09.628Z,34.01
2022-08-09T12:21:48.456Z,33.92
2022-08-09T12:24:25.397Z,33.16
2022-08-09T12:28:59.751Z,34.20
2022-08-09T12:30:01.541Z,33.84
2022-08-09T12:32:48.439Z,34.17
2022-08-09T12:35:19.233Z,34.44
2022-08-09T12:37:52.212Z,34.78
2022-08-09T12:40:27.776Z,33.87
2022-08-09T12:42:58.143Z,33.41
2022-08-09T12:45:34.592Z,33.11
2022-08-09T12:48:20.170Z,33.12
2022-08-09T12:51:03.992Z,34.11
2022-08-09T12:53:38.779Z,34.20
2022-08-09T12:56:43.493Z,34.94
2022-08-09T12:59:10.901Z,34.42
2022-08-09T13:01:49.027Z,33.90
2022-08-09T13:04:37.196Z,33.74
2022-08-09T13:07:19.968Z,33.33
2022-08-09T13:10:03.847Z,33.14
2022-08-09T13:12:39.961Z,33.11
2022-08-09T13:15:24.857Z,33.58
2022-08-09T13:18:05.676Z,34.27
2022-08-09T13:20:50.142Z,33.79
2022-08-09T13:24:16.311Z,33.58
2022-08-09T13:26:36.928Z,33.95
2022-08-09T13:29:10.561Z,31.77
2022-08-09T13:32:19.458Z,32.70
2022-08-09T13:34:50.525Z,33.77
2022-08-09T13:37:51.387Z,33.23
2022-08-09T13:41:46.297Z,33.82
2022-08-09T13:42:59.456Z,34.50
2022-08-09T13:46:42.625Z,34.33
2022-08-09T13:48:21.325Z,35.09
2022-08-09T13:50:49.512Z,34.13
2022-08-09T13:53:17.996Z,34.13
2022-08-09T13:55:47.932Z,32.38
2022-08-09T13:58:16.187Z,32.88
2022-08-09T14:00:48.298Z,33.04
2022-08-09T14:04:01.727Z,32.57
2022-08-09T14:06:19.273Z,32.54
2022-08-09T14:08:54.561Z,32.59
2022-08-09T14:11:23.694Z,33.22
2022-08-09T14:14:23.155Z,33.16
2022-08-09T14:16:40.382Z,33.41
2022-08-09T14:19:10.364Z,33.91
2022-08-09T14:21:39.013Z,32.85
2022-08-09T14:24:18.673Z,32.93
2022-08-09T14:26:51.170Z,32.77
2022-08-09T14:30:03.981Z,32.63
2022-08-09T14:32:11.404Z,33.18
2022-08-09T14:34:45.723Z,34.04
2022-08-09T14:37:14.304Z,33.84
2022-08-09T14:39:48.292Z,33.76
2022-08-09T14:42:31.102Z,33.38
2022-08-09T14:46:45.882Z,32.86
2022-08-09T14:47:57.257Z,33.25
2022-08-09T14:50:31.653Z,33.31
2022-08-09T14:53:01.677Z,33.37
2022-08-09T14:55:32.783Z,33.88
2022-08-09T14:58:03.749Z,32.87
2022-08-09T15:00:36.202Z,31.98
2022-08-09T15:03:07.306Z,32.33
2022-08-09T15:05:39.868Z,32.46
2022-08-09T15:08:19.100Z,31.71
2022-08-09T15:11:00.443Z,31.90
2022-08-09T15:13:48.110Z,32.63
2022-08-09T15:16:19.599Z,32.58
2022-08-09T15:18:49.554Z,32.13
2022-08-09T15:21:58.056Z,31.41
2022-08-09T15:24:12.838Z,31.25
2022-08-09T15:26:46.302Z,30.47
2022-08-09T15:30:58.761Z,30.76
2022-08-09T15:32:04.790Z,30.34
2022-08-09T15:34:35.314Z,29.46
2022-08-09T15:37:37.968Z,28.60
2022-08-09T15:40:19.969Z,28.57
2022-08-09T15:42:50.859Z,28.85
2022-08-09T15:45:29.332Z,29.43
2022-08-09T15:48:05.239Z,29.69
2022-08-09T15:50:39.357Z,29.12
2022-08-09T15:53:17.922Z,29.61
2022-08-09T15:56:28.566Z,30.28
2022-08-09T15:58:50.021Z,31.01
2022-08-09T16:01:19.670Z,30.96
2022-08-09T16:03:50.995Z,31.25
2022-08-09T16:06:34.829Z,30.61
2022-08-09T16:09:06.091Z,29.18
2022-08-09T16:11:34.584Z,28.15
2022-08-09T16:14:07.867Z,27.37
2022-08-09T16:16:41.981Z,27.01
2022-08-09T16:19:14.592Z,27.49
2022-08-09T16:21:48.571Z,27.80
2022-08-09T16:24:32.927Z,28.42
2022-08-09T16:27:04.850Z,27.78
2022-08-09T16:29:36.894Z,27.24
2022-08-09T16:32:19.329Z,26.85
2022-08-09T16:34:58.137Z,26.90
2022-08-09T16:37:54.095Z,26.77
2022-08-09T16:40:29.644Z,26.30
2022-08-09T16:43:07.378Z,26.15
2022-08-09T16:45:41.682Z,25.83
2022-08-09T16:48:38.673Z,26.03
2022-08-09T16:51:08.439Z,26.15
2022-08-09T16:54:02.268Z,26.45
2022-08-09T16:56:31.582Z,26.65
2022-08-09T16:59:01.033Z,26.99
2022-08-09T17:01:33.828Z,27.09
2022-08-09T17:04:05.426Z,27.17
2022-08-09T17:08:41.302Z,27.04
2022-08-09T17:09:45.441Z,26.80
2022-08-09T17:12:12.993Z,26.89
2022-08-09T17:14:47.936Z,26.57
2022-08-09T17:17:26.744Z,26.34
2022-08-09T17:20:29.075Z,26.30
2022-08-09T17:22:52.137Z,26.26
2022-08-09T17:25:23.370Z,26.07
2022-08-09T17:27:55.240Z,25.87
2022-08-09T17:30:26.497Z,25.80
2022-08-09T17:33:01.428Z,25.50
2022-08-09T17:35:41.211Z,25.24
2022-08-09T17:38:30.764Z,24.91
2022-08-09T17:41:00.069Z,24.85
2022-08-09T17:43:34.618Z,24.67
2022-08-09T17:46:09.502Z,24.71
2022-08-09T17:48:40.300Z,24.74
2022-08-09T17:51:18.087Z,24.67
2022-08-09T17:53:53.645Z,24.56
2022-08-09T17:56:28.803Z,24.41
2022-08-09T17:59:18.846Z,24.36
2022-08-09T18:02:06.098Z,24.32
2022-08-09T18:04:43.855Z,24.30
2022-08-09T18:07:22.922Z,24.20
2022-08-09T18:10:05.048Z,23.97
2022-08-09T18:12:40.735Z,23.87
2022-08-09T18:16:05.705Z,23.77
2022-08-09T18:18:25.952Z,23.75
2022-08-09T18:21:18.865Z,23.64
2022-08-09T18:24:12.795Z,23.48
2022-08-09T18:27:01.173Z,23.30
2022-08-09T18:30:39.252Z,23.07
2022-08-09T18:32:45.333Z,22.75
2022-08-09T18:35:59.556Z,22.56
2022-08-09T18:38:16.767Z,22.37
2022-08-09T18:40:46.383Z,22.21
2022-08-09T18:43:15.845Z,22.08
2022-08-09T18:46:50.843Z,21.85
2022-08-09T18:48:36.823Z,21.68
2022-08-09T18:51:11.678Z,21.47
2022-08-09T18:54:00.644Z,21.40
2022-08-09T18:56:37.603Z,21.30
2022-08-09T18:59:07.109Z,21.25
2022-08-09T19:01:43.586Z,21.12
2022-08-09T19:04:24.903Z,21.09
2022-08-09T19:07:05.638Z,21.10
2022-08-09T19:10:16.768Z,21.07
2022-08-09T19:12:37.873Z,21.05
2022-08-09T19:15:08.746Z,21.05
2022-08-09T19:18:01.024Z,20.98
2022-08-09T19:20:34.377Z,20.84
2022-08-09T19:24:39.832Z,20.86
2022-08-09T19:26:29.420Z,20.79
2022-08-09T19:29:20.618Z,20.82
2022-08-09T19:31:51.479Z,20.71
2022-08-09T19:34:22.892Z,20.59
2022-08-09T19:36:56.355Z,20.49
2022-08-09T19:40:03.284Z,20.38
2022-08-09T19:42:19.519Z,20.29
2022-08-09T19:44:51.149Z,20.26
2022-08-09T19:47:23.356Z,20.17
2022-08-09T19:50:08.235Z,20.13
2022-08-09T19:52:49.472Z,20.17
2022-08-09T19:55:30.480Z,20.17
2022-08-09T19:58:15.913Z,20.15
2022-08-09T20:00:47.296Z,20.14
2022-08-09T20:04:27.901Z,20.11
2022-08-09T20:06:22.346Z,20.05
2022-08-09T20:08:56.718Z,20.00
2022-08-09T20:11:42.941Z,19.99
2022-08-09T20:17:15.279Z,19.89
2022-08-09T20:19:54.376Z,19.84
2022-08-09T20:22:32.159Z,19.78
2022-08-09T20:25:07.082Z,19.71
2022-08-09T20:27:42.233Z,19.70
2022-08-09T20:30:17.968Z,19.66
2022-08-09T20:32:54.965Z,19.70
2022-08-09T20:35:27.291Z,19.73
2022-08-09T20:38:23.454Z,19.71
2022-08-09T20:40:56.046Z,19.62
2022-08-09T20:43:28.822Z,19.51
2022-08-09T20:46:33.264Z,19.44
2022-08-09T20:48:54.123Z,19.34
2022-08-09T20:51:26.766Z,19.32
2022-08-09T20:54:00.924Z,19.20
2022-08-09T20:56:38.191Z,19.11
2022-08-09T20:59:17.327Z,19.03
2022-08-09T21:01:53.406Z,18.96
2022-08-09T21:05:54.030Z,18.73
2022-08-09T21:07:18.522Z,18.57
2022-08-09T21:09:56.383Z,18.43
2022-08-09T21:12:34.058Z,18.40
2022-08-09T21:15:05.803Z,18.43
2022-08-09T21:18:21.862Z,18.39
2022-08-09T21:20:37.007Z,18.36
2022-08-09T21:23:13.538Z,18.43
2022-08-09T21:25:56.101Z,18.37
2022-08-09T21:28:36.544Z,18.29
2022-08-09T21:31:17.580Z,18.16
2022-08-09T21:33:56.609Z,18.04
2022-08-09T21:36:31.641Z,18.00
2022-08-09T21:39:04.841Z,18.01
2022-08-09T21:42:04.188Z,18.05
2022-08-09T21:44:35.327Z,18.02
2022-08-09T21:47:10.807Z,18.02
2022-08-09T21:49:50.955Z,17.92
2022-08-09T21:52:24.710Z,17.82
2022-08-09T21:55:04.197Z,17.76
2022-08-09T21:57:58.621Z,17.71
2022-08-09T22:00:34.461Z,17.71
2022-08-09T22:03:12.501Z,17.77
2022-08-09T22:05:51.466Z,17.78
2022-08-09T22:08:24.710Z,17.80
2022-08-09T22:11:48.991Z,17.74
2022-08-09T22:13:50.343Z,17.68
2022-08-09T22:16:21.649Z,17.65
2022-08-09T22:18:54.081Z,17.53
2022-08-09T22:21:45.337Z,17.48
2022-08-09T22:24:17.006Z,17.39
2022-08-09T22:26:51.457Z,17.30
2022-08-09T22:29:26.799Z,17.28
2022-08-09T22:32:02.630Z,17.32
2022-08-09T22:34:30.918Z,17.32
2022-08-09T22:37:00.939Z,17.27
2022-08-09T22:39:57.318Z,17.20
2022-08-09T22:42:22.595Z,17.15
2022-08-09T22:48:04.634Z,17.02
2022-08-09T22:48:15.524Z,17.06
2022-08-09T22:50:33.500Z,16.99
2022-08-09T22:53:03.897Z,16.97
2022-08-09T22:56:05.920Z,17.04
2022-08-09T22:58:32.888Z,16.97
2022-08-09T23:01:03.960Z,16.93
2022-08-09T23:04:05.305Z,16.91
2022-08-09T23:06:35.461Z,16.83
2022-08-09T23:09:06.974Z,16.75
2022-08-09T23:11:36.242Z,16.70
2022-08-09T23:14:10.217Z,16.63
2022-08-09T23:16:45.912Z,16.54
2022-08-09T23:19:15.651Z,16.46
2022-08-09T23:21:44.279Z,16.40
2022-08-09T23:24:13.069Z,16.35
2022-08-09T23:26:41.998Z,16.33
2022-08-09T23:29:13.659Z,16.25
2022-08-09T23:31:42.658Z,16.22
2022-08-09T23:34:11.210Z,16.18
2022-08-09T23:36:40.760Z,16.13
2022-08-09T23:39:09.501Z,16.09
2022-08-09T23:41:38.054Z,16.08
2022-08-09T23:44:06.625Z,16.01
2022-08-09T23:46:35.016Z,16.01
2022-08-09T23:49:03.464Z,16.03
2022-08-09T23:51:32.094Z,16.02
2022-08-09T23:54:03.066Z,15.99
2022-08-09T23:56:53.115Z,15.99
2022-08-09T23:59:21.621Z,16.01
